PWSweather.com
Personal Weather Stations
Station Observations
728536
Kristiansand, FlekkeroyNO 4625

KristiansandFlekkeroyNO 4625

Lat: 58.0860587, Lon: 8.0151742

Elevation: 36

Station Type: Davis Vantage Pro2

http://www.paulen.no

Latest ConditionsUpdated 4:20:01 PM GMT+01:01 Sunday, Sep 22, 2019
Currently Today's Max Today's Min Today's Average
Temperature 56.9°F13.8°C 57.1°F13.9°C 50.9°F10.5°C 54.2°F12.3°C
Dew Point 53.4°F11.9°C 54.9°F12.7°C 48.5°F9.2°C 51.8°F11.0°C
Winds 11.5 mph N18.5 kmh N 15.0 mph -24.1 kmh - - 6.1 mph 9.8 kmh
Wind Gusts 19.6 mph31.5 kmh 19.6 mph31.5 kmh - -
Humidity 88% 96% 87% 92%
Pressure 29.96 in1014.6 mb 29.97 in1014.9 mb 29.95 in1014.2 mb -
Precipitation - 0.01 in0.3 mm - -
Hour Temp Dew Point Humidity Winds Wind Gusts Pressure Precip Precip Rate Daily Precip Total
04:20 PM 56.9°F13.8°C 53.4°F11.9°C 88% 11.5 mph N18.5 kmh N 19.6 mph31.5 kmh 29.96 in1014.6 mb - 0.00 in0.0 mm 0.01 in0.3 mm
04:10 PM 57.0°F13.9°C 53.5°F11.9°C 88% 12.7 mph N20.4 kmh N 18.4 mph29.6 kmh 29.96 in1014.6 mb - 0.00 in0.0 mm 0.01 in0.3 mm
04:00 PM 56.9°F13.8°C 53.1°F11.7°C 87% 11.5 mph N18.5 kmh N 11.5 mph18.5 kmh 29.96 in1014.6 mb - 0.00 in0.0 mm 0.01 in0.3 mm
03:50 PM 56.9°F13.8°C 53.4°F11.9°C 88% 12.7 mph N20.4 kmh N 17.3 mph27.8 kmh 29.96 in1014.6 mb - 0.00 in0.0 mm 0.01 in0.3 mm
03:40 PM 56.8°F13.8°C 53.3°F11.8°C 88% 13.8 mph N22.2 kmh N 18.4 mph29.6 kmh 29.96 in1014.6 mb - 0.00 in0.0 mm 0.01 in0.3 mm
03:30 PM 56.9°F13.8°C 53.4°F11.9°C 88% 13.8 mph N22.2 kmh N 19.6 mph31.5 kmh 29.96 in1014.6 mb - 0.00 in0.0 mm 0.01 in0.3 mm
03:20 PM 56.9°F13.8°C 53.1°F11.7°C 87% 12.7 mph N20.4 kmh N 19.6 mph31.5 kmh 29.96 in1014.6 mb - 0.00 in0.0 mm 0.01 in0.3 mm
03:10 PM 56.9°F13.8°C 53.4°F11.9°C 88% 10.4 mph N16.7 kmh N 12.7 mph20.4 kmh 29.96 in1014.6 mb - 0.00 in0.0 mm 0.01 in0.3 mm
03:00 PM 56.9°F13.8°C 53.1°F11.7°C 87% 12.7 mph NNE20.4 kmh NNE 16.1 mph25.9 kmh 29.96 in1014.6 mb - 0.00 in0.0 mm 0.01 in0.3 mm
02:50 PM 56.8°F13.8°C 53.3°F11.8°C 88% 11.5 mph N18.5 kmh N 15.0 mph24.1 kmh 29.96 in1014.6 mb - 0.00 in0.0 mm 0.01 in0.3 mm
02:40 PM 56.7°F13.7°C 53.8°F12.1°C 90% 10.4 mph NE16.7 kmh NE 12.7 mph20.4 kmh 29.96 in1014.6 mb - 0.00 in0.0 mm 0.01 in0.3 mm
02:30 PM 56.8°F13.8°C 53.6°F12.0°C 89% 11.5 mph NE18.5 kmh NE 16.1 mph25.9 kmh 29.97 in1014.9 mb - 0.00 in0.0 mm 0.01 in0.3 mm
02:20 PM 57.0°F13.9°C 53.8°F12.1°C 89% 13.8 mph NE22.2 kmh NE 18.4 mph29.6 kmh 29.97 in1014.9 mb - 0.00 in0.0 mm 0.01 in0.3 mm
02:10 PM 57.1°F13.9°C 53.6°F12.0°C 88% 11.5 mph N18.5 kmh N 15.0 mph24.1 kmh 29.96 in1014.6 mb - 0.00 in0.0 mm 0.01 in0.3 mm
02:00 PM 57.0°F13.9°C 53.5°F11.9°C 88% 12.7 mph NE20.4 kmh NE 15.0 mph24.1 kmh 29.96 in1014.6 mb - 0.00 in0.0 mm 0.01 in0.3 mm
01:50 PM 56.9°F13.8°C 54.0°F12.2°C 90% 10.4 mph N16.7 kmh N 16.1 mph25.9 kmh 29.96 in1014.6 mb - 0.00 in0.0 mm 0.01 in0.3 mm
01:40 PM 57.1°F13.9°C 54.2°F12.3°C 90% 6.9 mph NE11.1 kmh NE 12.7 mph20.4 kmh 29.96 in1014.6 mb - 0.00 in0.0 mm 0.01 in0.3 mm
01:30 PM 56.8°F13.8°C 53.9°F12.2°C 90% 9.2 mph NE14.8 kmh NE 15.0 mph24.1 kmh 29.96 in1014.6 mb - 0.00 in0.0 mm 0.01 in0.3 mm
01:20 PM 56.8°F13.8°C 54.2°F12.3°C 91% 11.5 mph NNE18.5 kmh NNE 17.3 mph27.8 kmh 29.96 in1014.6 mb - 0.00 in0.0 mm 0.01 in0.3 mm
01:10 PM 56.8°F13.8°C 54.2°F12.3°C 91% 11.5 mph N18.5 kmh N 13.8 mph22.2 kmh 29.96 in1014.6 mb - 0.00 in0.0 mm 0.01 in0.3 mm
01:00 PM 56.9°F13.8°C 54.3°F12.4°C 91% 8.1 mph NNE13.0 kmh NNE 11.5 mph18.5 kmh 29.97 in1014.9 mb - 0.00 in0.0 mm 0.01 in0.3 mm
12:50 PM 56.7°F13.7°C 54.1°F12.3°C 91% 10.4 mph NE16.7 kmh NE 16.1 mph25.9 kmh 29.97 in1014.9 mb - 0.00 in0.0 mm 0.01 in0.3 mm
12:40 PM 56.9°F13.8°C 54.3°F12.4°C 91% 9.2 mph N14.8 kmh N 16.1 mph25.9 kmh 29.96 in1014.6 mb - 0.00 in0.0 mm 0.01 in0.3 mm
12:30 PM 56.8°F13.8°C 54.2°F12.3°C 91% 11.5 mph NE18.5 kmh NE 15.0 mph24.1 kmh 29.96 in1014.6 mb - 0.00 in0.0 mm 0.01 in0.3 mm
12:20 PM 56.7°F13.7°C 54.4°F12.4°C 92% 13.8 mph NNE22.2 kmh NNE 18.4 mph29.6 kmh 29.96 in1014.6 mb - 0.00 in0.0 mm 0.01 in0.3 mm
12:10 PM 56.5°F13.6°C 54.2°F12.3°C 92% 10.4 mph N16.7 kmh N 11.5 mph18.5 kmh 29.96 in1014.6 mb - 0.00 in0.0 mm 0.01 in0.3 mm
12:00 PM 56.6°F13.7°C 54.3°F12.4°C 92% 11.5 mph N18.5 kmh N 17.3 mph27.8 kmh 29.96 in1014.6 mb - 0.00 in0.0 mm 0.01 in0.3 mm
11:50 AM 56.7°F13.7°C 54.7°F12.6°C 93% 15.0 mph N24.1 kmh N 19.6 mph31.5 kmh 29.96 in1014.6 mb - 0.00 in0.0 mm 0.01 in0.3 mm
11:40 AM 56.6°F13.7°C 54.9°F12.7°C 94% 11.5 mph N18.5 kmh N 13.8 mph22.2 kmh 29.96 in1014.6 mb - 0.00 in0.0 mm 0.01 in0.3 mm
11:30 AM 56.4°F13.6°C 54.7°F12.6°C 94% 8.1 mph N13.0 kmh N 13.8 mph22.2 kmh 29.96 in1014.6 mb - 0.00 in0.0 mm 0.01 in0.3 mm
11:20 AM 56.2°F13.4°C 54.5°F12.5°C 94% 9.2 mph N14.8 kmh N 11.5 mph18.5 kmh 29.96 in1014.6 mb - 0.00 in0.0 mm 0.01 in0.3 mm
11:10 AM 56.0°F13.3°C 54.6°F12.6°C 95% 8.1 mph N13.0 kmh N 10.4 mph16.7 kmh 29.97 in1014.9 mb - 0.00 in0.0 mm 0.01 in0.3 mm
11:00 AM 55.9°F13.3°C 54.5°F12.5°C 95% 8.1 mph NNE13.0 kmh NNE 10.4 mph16.7 kmh 29.97 in1014.9 mb - 0.00 in0.0 mm 0.01 in0.3 mm
10:50 AM 55.7°F13.2°C 54.3°F12.4°C 95% 10.4 mph NNE16.7 kmh NNE 12.7 mph20.4 kmh 29.96 in1014.6 mb - 0.00 in0.0 mm 0.01 in0.3 mm
10:40 AM 55.6°F13.1°C 54.2°F12.3°C 95% 8.1 mph N13.0 kmh N 11.5 mph18.5 kmh 29.97 in1014.9 mb - 0.00 in0.0 mm 0.01 in0.3 mm
10:30 AM 55.5°F13.1°C 54.4°F12.4°C 96% 8.1 mph N13.0 kmh N 12.7 mph20.4 kmh 29.97 in1014.9 mb - 0.00 in0.0 mm 0.01 in0.3 mm
10:20 AM 55.3°F12.9°C 54.2°F12.3°C 96% 6.9 mph NNE11.1 kmh NNE 11.5 mph18.5 kmh 29.97 in1014.9 mb - 0.00 in0.0 mm 0.01 in0.3 mm
10:10 AM 55.2°F12.9°C 53.8°F12.1°C 95% 8.1 mph N13.0 kmh N 11.5 mph18.5 kmh 29.97 in1014.9 mb - 0.00 in0.0 mm 0.01 in0.3 mm
10:00 AM 55.1°F12.8°C 54.0°F12.2°C 96% 8.1 mph N13.0 kmh N 11.5 mph18.5 kmh 29.97 in1014.9 mb - 0.00 in0.0 mm 0.01 in0.3 mm
09:50 AM 54.8°F12.7°C 53.7°F12.1°C 96% 5.8 mph N9.3 kmh N 6.9 mph11.1 kmh 29.97 in1014.9 mb - 0.00 in0.0 mm 0.01 in0.3 mm
09:40 AM 54.7°F12.6°C 53.6°F12.0°C 96% 5.8 mph N9.3 kmh N 10.4 mph16.7 kmh 29.97 in1014.9 mb - 0.00 in0.0 mm 0.01 in0.3 mm
09:30 AM 54.5°F12.5°C 53.1°F11.7°C 95% 6.9 mph N11.1 kmh N 10.4 mph16.7 kmh 29.96 in1014.6 mb - 0.00 in0.0 mm 0.01 in0.3 mm
09:20 AM 54.2°F12.3°C 52.8°F11.6°C 95% 8.1 mph N13.0 kmh N 11.5 mph18.5 kmh 29.96 in1014.6 mb - 0.00 in0.0 mm 0.01 in0.3 mm
09:10 AM 54.2°F12.3°C 52.5°F11.4°C 94% 5.8 mph N9.3 kmh N 11.5 mph18.5 kmh 29.96 in1014.6 mb - 0.00 in0.0 mm 0.01 in0.3 mm
09:00 AM 54.0°F12.2°C 52.3°F11.3°C 94% 8.1 mph N13.0 kmh N 9.2 mph14.8 kmh 29.97 in1014.9 mb - 0.00 in0.0 mm 0.01 in0.3 mm
08:50 AM 53.9°F12.2°C 52.2°F11.2°C 94% 9.2 mph N14.8 kmh N 9.2 mph14.8 kmh 29.97 in1014.9 mb - 0.00 in0.0 mm 0.01 in0.3 mm
08:40 AM 54.3°F12.4°C 52.3°F11.3°C 93% 11.5 mph N18.5 kmh N 17.3 mph27.8 kmh 29.97 in1014.9 mb - 0.00 in0.0 mm 0.01 in0.3 mm
08:30 AM 55.1°F12.8°C 51.6°F10.9°C 88% 6.9 mph N11.1 kmh N 9.2 mph14.8 kmh 29.96 in1014.6 mb - 0.00 in0.0 mm 0.01 in0.3 mm
08:20 AM 54.2°F12.3°C 51.0°F10.6°C 89% 2.3 mph NE3.7 kmh NE 5.8 mph9.3 kmh 29.96 in1014.6 mb - 0.00 in0.0 mm 0.01 in0.3 mm
08:10 AM 53.1°F11.7°C 50.2°F10.1°C 90% 2.3 mph N3.7 kmh N 3.5 mph5.6 kmh 29.96 in1014.6 mb - 0.00 in0.0 mm 0.01 in0.3 mm
08:00 AM 52.5°F11.4°C 49.3°F9.6°C 89% 4.6 mph N7.4 kmh N 5.8 mph9.3 kmh 29.96 in1014.6 mb - 0.00 in0.0 mm 0.01 in0.3 mm
07:50 AM 52.4°F11.3°C 49.6°F9.8°C 90% 5.8 mph N9.3 kmh N 6.9 mph11.1 kmh 29.97 in1014.9 mb - 0.00 in0.0 mm 0.01 in0.3 mm
07:40 AM 52.4°F11.3°C 49.2°F9.6°C 89% 5.8 mph N9.3 kmh N 6.9 mph11.1 kmh 29.96 in1014.6 mb - 0.00 in0.0 mm 0.01 in0.3 mm
07:30 AM 52.0°F11.1°C 48.9°F9.4°C 89% 6.9 mph N11.1 kmh N 8.1 mph13.0 kmh 29.96 in1014.6 mb - 0.00 in0.0 mm 0.01 in0.3 mm
07:20 AM 51.8°F11.0°C 49.0°F9.4°C 90% 5.8 mph N9.3 kmh N 6.9 mph11.1 kmh 29.96 in1014.6 mb - 0.00 in0.0 mm 0.01 in0.3 mm
07:10 AM 51.5°F10.8°C 48.7°F9.3°C 90% 5.8 mph N9.3 kmh N 8.1 mph13.0 kmh 29.96 in1014.6 mb - 0.01 in0.3 mm 0.01 in0.3 mm
07:00 AM 51.6°F10.9°C 48.5°F9.2°C 89% 6.9 mph N11.1 kmh N 8.1 mph13.0 kmh 29.96 in1014.6 mb - 0.01 in0.3 mm 0.01 in0.3 mm
06:50 AM 51.6°F10.9°C 48.8°F9.3°C 90% 4.6 mph N7.4 kmh N 4.6 mph7.4 kmh 29.96 in1014.6 mb - 0.01 in0.3 mm 0.01 in0.3 mm
06:40 AM 51.4°F10.8°C 48.6°F9.2°C 90% 6.9 mph N11.1 kmh N 8.1 mph13.0 kmh 29.96 in1014.6 mb - 0.01 in0.3 mm 0.01 in0.3 mm
06:30 AM 51.7°F10.9°C 48.9°F9.4°C 90% 4.6 mph N7.4 kmh N 5.8 mph9.3 kmh 29.96 in1014.6 mb - 0.01 in0.3 mm 0.01 in0.3 mm
06:20 AM 51.2°F10.7°C 49.0°F9.4°C 92% 3.5 mph N5.6 kmh N 3.5 mph5.6 kmh 29.96 in1014.6 mb - 0.01 in0.3 mm 0.01 in0.3 mm
06:10 AM 51.1°F10.6°C 48.5°F9.2°C 91% 3.5 mph N5.6 kmh N 3.5 mph5.6 kmh 29.96 in1014.6 mb - 0.00 in0.0 mm 0.00 in0.0 mm
06:00 AM 50.9°F10.5°C 48.7°F9.3°C 92% 3.5 mph N5.6 kmh N 3.5 mph5.6 kmh 29.96 in1014.6 mb - 0.00 in0.0 mm 0.00 in0.0 mm
05:50 AM 50.9°F10.5°C 48.7°F9.3°C 92% 4.6 mph NW7.4 kmh NW 5.8 mph9.3 kmh 29.96 in1014.6 mb - 0.00 in0.0 mm 0.00 in0.0 mm
05:40 AM 50.9°F10.5°C 48.7°F9.3°C 92% 4.6 mph NW7.4 kmh NW 5.8 mph9.3 kmh 29.96 in1014.6 mb - 0.00 in0.0 mm 0.00 in0.0 mm
05:30 AM 51.3°F10.7°C 49.3°F9.6°C 93% 3.5 mph N5.6 kmh N 4.6 mph7.4 kmh 29.95 in1014.2 mb - 0.00 in0.0 mm 0.00 in0.0 mm
05:20 AM 51.5°F10.8°C 49.3°F9.6°C 92% 2.3 mph N3.7 kmh N 3.5 mph5.6 kmh 29.95 in1014.2 mb - 0.00 in0.0 mm 0.00 in0.0 mm
05:10 AM 51.4°F10.8°C 49.2°F9.6°C 92% 3.5 mph N5.6 kmh N 3.5 mph5.6 kmh 29.95 in1014.2 mb - 0.00 in0.0 mm 0.00 in0.0 mm
05:00 AM 51.2°F10.7°C 48.6°F9.2°C 91% 2.3 mph N3.7 kmh N 3.5 mph5.6 kmh 29.95 in1014.2 mb - 0.00 in0.0 mm 0.00 in0.0 mm
04:50 AM 51.2°F10.7°C 48.7°F9.3°C 91% 2.3 mph N3.7 kmh N 3.5 mph5.6 kmh 29.96 in1014.6 mb - 0.00 in0.0 mm 0.00 in0.0 mm
04:40 AM 51.0°F10.6°C 48.8°F9.3°C 92% Calm Calm 1.2 mph1.9 kmh 29.96 in1014.6 mb - 0.00 in0.0 mm 0.00 in0.0 mm
04:30 AM 51.1°F10.6°C 49.1°F9.5°C 93% 2.3 mph N3.7 kmh N 2.3 mph3.7 kmh 29.96 in1014.6 mb - 0.00 in0.0 mm 0.00 in0.0 mm
04:20 AM 51.3°F10.7°C 49.6°F9.8°C 94% Calm Calm -- 29.96 in1014.6 mb - 0.00 in0.0 mm 0.00 in0.0 mm
04:10 AM 51.3°F10.7°C 49.6°F9.8°C 94% 3.5 mph NNW5.6 kmh NNW 4.6 mph7.4 kmh 29.96 in1014.6 mb - 0.00 in0.0 mm 0.00 in0.0 mm
04:00 AM 51.3°F10.7°C 49.6°F9.8°C 94% 3.5 mph NNW5.6 kmh NNW 3.5 mph5.6 kmh 29.96 in1014.6 mb - 0.00 in0.0 mm 0.00 in0.0 mm
03:50 AM 51.1°F10.6°C 49.4°F9.7°C 94% 3.5 mph NNW5.6 kmh NNW 4.6 mph7.4 kmh 29.96 in1014.6 mb - 0.00 in0.0 mm 0.00 in0.0 mm
03:40 AM 51.5°F10.8°C 50.1°F10.1°C 95% 3.5 mph NNW5.6 kmh NNW 3.5 mph5.6 kmh 29.96 in1014.6 mb - 0.00 in0.0 mm 0.00 in0.0 mm
03:30 AM 51.8°F11.0°C 49.9°F9.9°C 93% Calm Calm -- 29.96 in1014.6 mb - 0.00 in0.0 mm 0.00 in0.0 mm
03:20 AM 52.4°F11.3°C 50.1°F10.1°C 92% Calm Calm -- 29.96 in1014.6 mb - 0.00 in0.0 mm 0.00 in0.0 mm
03:10 AM 52.8°F11.6°C 50.6°F10.3°C 92% Calm Calm -- 29.97 in1014.9 mb - 0.00 in0.0 mm 0.00 in0.0 mm
03:00 AM 52.7°F11.5°C 50.4°F10.2°C 92% Calm Calm -- 29.97 in1014.9 mb - 0.00 in0.0 mm 0.00 in0.0 mm
02:50 AM 52.7°F11.5°C 50.7°F10.4°C 93% Calm Calm -- 29.97 in1014.9 mb - 0.00 in0.0 mm 0.00 in0.0 mm
02:40 AM 52.9°F11.6°C 50.6°F10.3°C 92% Calm Calm -- 29.96 in1014.6 mb - 0.00 in0.0 mm 0.00 in0.0 mm
02:30 AM 53.0°F11.7°C 51.0°F10.6°C 93% Calm Calm -- 29.96 in1014.6 mb - 0.00 in0.0 mm 0.00 in0.0 mm
02:20 AM 52.7°F11.5°C 51.3°F10.7°C 95% Calm Calm -- 29.96 in1014.6 mb - 0.00 in0.0 mm 0.00 in0.0 mm
02:10 AM 52.7°F11.5°C 51.3°F10.7°C 95% Calm Calm -- 29.97 in1014.9 mb - 0.00 in0.0 mm 0.00 in0.0 mm
02:00 AM 52.7°F11.5°C 51.0°F10.6°C 94% Calm Calm -- 29.97 in1014.9 mb - 0.00 in0.0 mm 0.00 in0.0 mm
01:50 AM 52.5°F11.4°C 50.8°F10.4°C 94% Calm Calm 1.2 mph1.9 kmh 29.97 in1014.9 mb - 0.00 in0.0 mm 0.00 in0.0 mm
01:40 AM 52.5°F11.4°C 50.8°F10.4°C 94% Calm Calm 1.2 mph1.9 kmh 29.97 in1014.9 mb - 0.00 in0.0 mm 0.00 in0.0 mm
01:30 AM 52.9°F11.6°C 51.2°F10.7°C 94% 2.3 mph NW3.7 kmh NW 3.5 mph5.6 kmh 29.97 in1014.9 mb - 0.00 in0.0 mm 0.00 in0.0 mm
01:20 AM 53.4°F11.9°C 51.1°F10.6°C 92% 2.3 mph NW3.7 kmh NW 3.5 mph5.6 kmh 29.97 in1014.9 mb - 0.00 in0.0 mm 0.00 in0.0 mm
01:10 AM 54.2°F12.3°C 51.9°F11.1°C 92% 1.2 mph NW1.9 kmh NW 1.2 mph1.9 kmh 29.97 in1014.9 mb - 0.00 in0.0 mm 0.00 in0.0 mm
01:00 AM 54.3°F12.4°C 52.0°F11.1°C 92% Calm Calm -- 29.97 in1014.9 mb - 0.00 in0.0 mm 0.00 in0.0 mm
12:50 AM 54.5°F12.5°C 52.2°F11.2°C 92% Calm Calm -- 29.97 in1014.9 mb - 0.00 in0.0 mm 0.00 in0.0 mm
12:40 AM 54.5°F12.5°C 51.9°F11.1°C 91% Calm Calm -- 29.97 in1014.9 mb - 0.00 in0.0 mm 0.00 in0.0 mm
12:30 AM 54.0°F12.2°C 51.7°F10.9°C 92% Calm Calm -- 29.97 in1014.9 mb - 0.00 in0.0 mm 0.00 in0.0 mm
12:20 AM 54.0°F12.2°C 51.7°F10.9°C 92% Calm Calm -- 29.97 in1014.9 mb - 0.00 in0.0 mm 0.00 in0.0 mm
12:10 AM 54.2°F12.3°C 51.9°F11.1°C 92% Calm Calm -- 29.97 in1014.9 mb - 0.00 in0.0 mm 0.00 in0.0 mm
12:00 AM 54.3°F12.4°C 52.0°F11.1°C 92% Calm Calm -- 29.97 in1014.9 mb - 0.00 in0.0 mm 0.00 in0.0 mm